Weather observations for the past three days for
Kissimmee Gateway Airport
Imperial (Metric)
Date Time (edt) Wind (mph) Vis. (mi.) Weather Sky Cond. Temperature (ºF) Relative Humidity Wind Chill (°F) Heat Index (°F) Pressure Precipitation (in)
Air Dwpt 6 hour altimeter (in) sea level (mb) 1 hr 3 hr 6 hr
Max. Min.
08 01:56 W 5 10.00 Fair CLR 73 66.9 86 73 81% 29.96 1014.8
08 00:56 NW 7 10.00 Fair CLR 73.9 66.9 79% 29.97 1015.0
07 23:56 NW 9 10.00 Fair CLR 75 66 74% 76 29.97 1015.0
07 22:56 W 9 10.00 Fair CLR 78.1 64.9 64% 80 29.96 1014.8
07 21:56 W 8 10.00 Fair CLR 79 57.9 49% 80 29.96 1014.6
07 20:56 W 7 10.00 Fair CLR 81 55 41% 81 29.94 1014.1
07 19:56 W 10 10.00 Fair CLR 86 52 93.9 86 31% 84 29.93 1013.7
07 18:56 W 12 10.00 Fair CLR 91.9 55.9 30% 90 29.92 1013.4
07 17:56 W 8 10.00 Fair CLR 93 54 27% 91 29.92 1013.2
07 16:56 W 6 10.00 Fair CLR 93.9 59 31% 93 29.92 1013.4
07 15:56 W 10 10.00 Fair CLR 93 62.1 36% 94 29.94 1014.0
07 14:56 SW 7 G 22 10.00 Fair CLR 91 64.9 42% 93 29.96 1014.7
07 13:56 W 15 10.00 Fair CLR 91 64.9 91 73 42% 93 30 1015.9
07 12:56 SW 13 G 20 10.00 Fair CLR 89.1 63 42% 90 30 1016.1
07 11:56 SW 10 G 18 10.00 Fair CLR 87.1 57.9 37% 86 30.02 1016.8
07 10:56 SW 10 10.00 Fair CLR 84.9 62.1 46% 85 30.04 1017.2
07 09:56 SW 8 10.00 Fair CLR 81 66 61% 83 30.03 1017.2
07 08:56 S 8 10.00 Fair CLR 77 68 74% 79 30.03 1016.9
07 07:56 S 5 10.00 Fair CLR 73 69.1 73 68 87% 30.03 1017.0
07 06:56 Calm 10.00 Fair CLR 69.1 64.9 87% 30.01 1016.5
07 05:56 Calm 10.00 Fair CLR 69.1 64.9 87% 30 1016.1
07 04:56 S 5 10.00 Mostly Cloudy BKN037 70 64.9 84% 30 1015.8
07 03:56 S 5 10.00 Fair CLR 71.1 66 84% 29.98 1015.4
07 02:56 S 8 10.00 Fair CLR 73 66 79% 29.99 1015.8
07 01:56 S 7 10.00 Fair CLR 73 66 84 73 79% 30.01 1016.5
07 00:56 S 5 10.00 Fair CLR 73 64.9 76% 30.04 1017.2
06 23:56 SE 6 10.00 Fair CLR 75 63 66% 77 30.03 1017.1
06 22:56 S 6 10.00 Fair CLR 75.9 62.1 62% 78 30.04 1017.3
06 21:56 SE 12 10.00 Fair CLR 79 61 54% 80 30.01 1016.3
06 20:56 SE 7 10.00 Fair CLR 81 63 54% 82 30.01 1016.3
06 19:56 SE 9 10.00 Fair CLR 84 62.1 91 84 48% 85 29.99 1015.8
06 18:56 SE 6 10.00 Fair CLR 90 57.9 34% 89 29.98 1015.5
06 17:56 SE 8 10.00 Fair CLR 91 57 32% 90 29.99 1015.8
06 16:56 S 8 10.00 Fair CLR 91 57 32% 90 29.99 1015.7
06 15:56 S 9 10.00 Fair CLR 91 59 34% 90 30 1016.0
06 14:56 SE 6 10.00 Fair CLR 90 59 35% 89 30.02 1016.8
06 13:56 S 5 10.00 Fair CLR 88 59 88 70 38% 87 30.04 1017.4
06 12:56 S 9 10.00 Fair CLR 86 62.1 45% 87 30.06 1018.0
06 11:56 S 9 10.00 Fair CLR 84.9 64 50% 86 30.06 1018.1
06 10:56 S 10 10.00 Fair CLR 81 69.1 67% 84 30.07 1018.3
06 09:56 S 9 10.00 Fair CLR 78.1 69.1 74% 80 30.07 1018.3
06 08:56 S 8 10.00 Fair CLR 73.9 69.1 85% 30.05 1017.8
06 07:56 SE 5 10.00 Fair CLR 70 66.9 70 64.9 90% 30.04 1017.5
06 06:56 Calm 10.00 Fair CLR 64.9 63 93% 30.03 1017.0
06 05:56 Calm 10.00 Fair CLR 66 63 90% 30.02 1016.9
06 04:56 S 3 10.00 Fair CLR 64.9 63 93% 30.01 1016.2
06 03:56 Calm 10.00 Fair CLR 66 62.1 87% 30.02 1016.6
06 02:56 Calm 10.00 Fair CLR 66.9 62.1 84% 30.02 1016.7
06 01:56 Calm 10.00 Fair CLR 68 62.1 77 68 81% 30.04 1017.3
06 00:56 Calm 10.00 Fair CLR 69.1 62.1 78% 30.05 1017.6
05 23:56 SE 3 10.00 Fair CLR 70 61 73% 30.04 1017.5
05 22:56 SE 5 10.00 Fair CLR 72 61 68% 30.04 1017.5
05 21:56 E 8 10.00 Fair CLR 73.9 61 64% 30.03 1017.0
05 20:56 E 7 10.00 Fair CLR 75 60.1 60% 77 30.01 1016.4
05 19:56 E 13 10.00 Fair CLR 77 57.9 84 77 52% 79 30 1015.9
05 18:56 E 12 10.00 Fair CLR 79 59 50% 80 29.99 1015.6
05 17:56 E 16 10.00 Fair CLR 82 61 49% 83 29.99 1015.7
05 16:56 E 10 10.00 Mostly Cloudy BKN080 82.9 61 48% 83 29.98 1015.3
05 15:56 E 12 10.00 Mostly Cloudy FEW070 BKN085 84 62.1 48% 85 29.99 1015.6
05 14:56 E 8 10.00 Mostly Cloudy BKN060 82.9 60.1 46% 83 30 1016.2
05 13:56 E 9 10.00 Overcast BKN050 OVC060 82 61 82.9 70 49% 83 30.03 1016.9
05 12:56 E 10 10.00 Overcast OVC070 82 61 49% 83 30.03 1017.2
05 11:56 E 10 10.00 A Few Clouds FEW039 81 61 51% 82 30.04 1017.4
05 10:56 E 10 G 18 10.00 Fair CLR 79 61 54% 80 30.04 1017.4
05 09:56 SE 13 10.00 A Few Clouds FEW075 75.9 64 67% 78 30.03 1016.9
05 08:56 E 9 10.00 A Few Clouds FEW070 73.9 64.9 74% 30.03 1016.9
05 07:56 E 6 10.00 Partly Cloudy SCT070 70 64.9 70 66 84% 30.02 1016.8
05 06:56 E 5 10.00 A Few Clouds FEW070 66 62.1 87% 30 1016.1
05 05:56 E 6 10.00 Fair CLR 66.9 62.1 84% 29.99 1015.7
05 04:56 E 3 10.00 Fair CLR 66.9 62.1 84% 29.98 1015.5
05 03:56 E 5 10.00 Fair CLR 66.9 61 81% 29.98 1015.4
05 02:56 E 5 10.00 Fair CLR 68 61 78% 29.99 1015.6
Date Time (edt) Wind (mph) Vis. (mi.) Weather Sky Cond. Air Dwpt Max. Min. Relative Humidity Wind Chill (°F) Heat Index (°F) altimeter (in) sea level (mb) 1 hr 3 hr 6 hr
6 hour
Temperature (ºF) Pressure Precipitation (in)